createdAt,value
2019-02-09T00:02:31.652Z,43.40
2019-02-09T00:07:37.042Z,43.40
2019-02-09T00:12:42.440Z,43.40
2019-02-09T00:17:47.836Z,43.30
2019-02-09T00:22:53.384Z,43.40
2019-02-09T00:27:58.780Z,43.30
2019-02-09T00:33:04.428Z,43.30
2019-02-09T00:38:09.827Z,43.30
2019-02-09T00:43:15.223Z,43.30
2019-02-09T00:48:20.601Z,43.30
2019-02-09T00:53:25.987Z,43.20
2019-02-09T00:58:31.372Z,43.30
2019-02-09T01:03:36.908Z,43.20
2019-02-09T01:08:42.296Z,43.10
2019-02-09T01:13:47.677Z,43.10
2019-02-09T01:18:53.061Z,43.00
2019-02-09T01:23:58.476Z,42.90
2019-02-09T01:29:03.862Z,43.00
2019-02-09T01:34:09.251Z,42.80
2019-02-09T01:39:14.645Z,42.80
2019-02-09T01:44:20.031Z,42.80
2019-02-09T01:49:25.408Z,42.70
2019-02-09T01:54:30.796Z,42.70
2019-02-09T01:59:36.192Z,42.60
2019-02-09T02:04:41.916Z,42.60
2019-02-09T02:09:47.472Z,42.60
2019-02-09T02:14:52.903Z,42.60
2019-02-09T02:19:58.248Z,42.70
2019-02-09T02:25:05.575Z,42.50
2019-02-09T02:30:23.730Z,42.50
2019-02-09T02:35:29.609Z,42.50
2019-02-09T02:40:35.363Z,42.50
2019-02-09T02:45:40.755Z,42.50
2019-02-09T02:50:46.884Z,42.50
2019-02-09T02:55:52.346Z,42.50
2019-02-09T03:00:57.880Z,42.60
2019-02-09T03:06:03.305Z,42.50
2019-02-09T03:11:08.698Z,43.10
2019-02-09T03:16:14.087Z,42.50
2019-02-09T03:21:19.480Z,42.50
2019-02-09T03:26:28.214Z,42.60
2019-02-09T03:31:33.603Z,42.60
2019-02-09T03:36:38.996Z,42.70
2019-02-09T03:41:44.393Z,42.60
2019-02-09T03:46:49.795Z,42.70
2019-02-09T03:51:55.167Z,42.60
2019-02-09T03:57:00.584Z,42.60
2019-02-09T04:02:06.037Z,42.60
2019-02-09T04:07:11.787Z,42.60
2019-02-09T04:12:17.187Z,42.60
2019-02-09T04:17:22.578Z,42.50
2019-02-09T04:22:27.962Z,42.60
2019-02-09T04:27:53.322Z,42.60
2019-02-09T04:32:59.108Z,42.60
2019-02-09T04:38:04.561Z,42.60
2019-02-09T04:43:09.954Z,42.50
2019-02-09T04:48:15.346Z,42.50
2019-02-09T04:53:21.028Z,42.50
2019-02-09T04:58:26.411Z,42.50
2019-02-09T05:03:31.803Z,42.40
2019-02-09T05:08:37.432Z,42.40
2019-02-09T05:13:42.836Z,42.50
2019-02-09T05:18:48.308Z,42.40
2019-02-09T05:23:53.799Z,42.40
2019-02-09T05:28:59.183Z,42.40
2019-02-09T05:34:04.912Z,42.50
2019-02-09T05:39:10.302Z,42.40
2019-02-09T05:44:15.694Z,42.40
2019-02-09T05:49:21.094Z,42.20
2019-02-09T05:54:26.479Z,42.40
2019-02-09T05:59:31.867Z,42.20
2019-02-09T06:04:37.252Z,42.20
2019-02-09T06:09:42.643Z,42.10
2019-02-09T06:14:48.030Z,42.10
2019-02-09T06:19:53.409Z,42.10
2019-02-09T06:24:58.796Z,42.10
2019-02-09T06:30:07.484Z,42.00
2019-02-09T06:35:13.419Z,42.10
2019-02-09T06:40:24.268Z,42.20
2019-02-09T06:45:29.657Z,42.10
2019-02-09T06:50:35.047Z,42.20
2019-02-09T06:55:40.435Z,42.30
2019-02-09T07:00:45.839Z,42.30
2019-02-09T07:05:51.218Z,42.30
2019-02-09T07:10:56.679Z,42.40
2019-02-09T07:16:02.063Z,42.30
2019-02-09T07:21:07.439Z,42.50
2019-02-09T07:26:12.845Z,42.50
2019-02-09T07:31:18.231Z,42.70
2019-02-09T07:36:23.614Z,42.80
2019-02-09T07:41:29.003Z,42.60
2019-02-09T07:46:34.411Z,42.60
2019-02-09T07:51:39.798Z,42.80
2019-02-09T07:56:45.173Z,42.70
2019-02-09T08:01:50.571Z,42.80
2019-02-09T08:06:55.950Z,42.80
2019-02-09T08:12:02.752Z,42.80
2019-02-09T08:17:08.139Z,42.90
2019-02-09T08:22:13.539Z,42.90
2019-02-09T08:27:23.597Z,43.20
2019-02-09T08:32:26.012Z,43.30
2019-02-09T08:37:31.401Z,43.50
2019-02-09T08:42:36.791Z,43.50
2019-02-09T08:47:42.180Z,43.60
2019-02-09T08:52:47.735Z,43.60
2019-02-09T08:57:53.953Z,43.60
2019-02-09T09:02:59.809Z,43.80
2019-02-09T09:08:06.269Z,43.70
2019-02-09T09:13:11.681Z,43.70
2019-02-09T09:18:17.111Z,43.70
2019-02-09T09:23:22.546Z,43.70
2019-02-09T09:28:28.007Z,43.70
2019-02-09T09:33:33.558Z,43.70
2019-02-09T09:38:39.022Z,44.10
2019-02-09T09:43:44.416Z,44.10
2019-02-09T09:48:49.810Z,44.70
2019-02-09T09:53:55.198Z,44.10
2019-02-09T09:59:00.604Z,44.10
2019-02-09T10:04:06.061Z,44.10
2019-02-09T10:09:11.527Z,44.10
2019-02-09T10:14:16.916Z,44.30
2019-02-09T10:19:22.301Z,44.40
2019-02-09T10:24:27.700Z,44.40
2019-02-09T10:29:33.102Z,44.20
2019-02-09T10:34:38.582Z,44.30
2019-02-09T10:39:44.065Z,44.20
2019-02-09T10:45:20.315Z,44.00
2019-02-09T10:50:48.067Z,44.00
2019-02-09T10:55:53.597Z,44.10
2019-02-09T11:01:04.539Z,44.10
2019-02-09T11:06:09.955Z,44.20
2019-02-09T11:11:15.492Z,44.00
2019-02-09T11:16:20.886Z,44.50
2019-02-09T11:21:26.325Z,43.60
2019-02-09T11:26:31.727Z,43.40
2019-02-09T11:31:39.198Z,43.10
2019-02-09T11:36:44.265Z,42.80
2019-02-09T11:41:49.656Z,42.50
2019-02-09T11:46:55.064Z,42.40
2019-02-09T11:52:00.512Z,42.20
2019-02-09T11:57:06.099Z,41.80
2019-02-09T12:02:11.567Z,41.60
2019-02-09T12:07:18.484Z,41.30
2019-02-09T12:12:24.040Z,41.00
2019-02-09T12:17:29.508Z,40.50
2019-02-09T12:22:34.906Z,40.50
2019-02-09T12:27:40.463Z,40.80
2019-02-09T12:32:45.850Z,40.80
2019-02-09T12:37:51.410Z,40.80
2019-02-09T12:42:56.938Z,40.90
2019-02-09T12:48:02.770Z,41.10
2019-02-09T12:53:09.068Z,41.00
2019-02-09T12:58:14.546Z,41.00
2019-02-09T13:03:31.001Z,41.10
2019-02-09T13:08:32.555Z,41.00
2019-02-09T13:13:38.207Z,41.10
2019-02-09T13:18:43.589Z,41.30
2019-02-09T13:23:49.049Z,41.40
2019-02-09T13:28:54.442Z,41.50
2019-02-09T13:33:59.898Z,41.70
2019-02-09T13:39:08.001Z,42.00
2019-02-09T13:44:13.808Z,42.00
2019-02-09T13:49:19.209Z,42.00
2019-02-09T13:54:24.601Z,42.20
2019-02-09T13:59:29.990Z,42.20
2019-02-09T14:04:40.364Z,42.30
2019-02-09T14:09:45.957Z,42.30
2019-02-09T14:14:51.394Z,42.40
2019-02-09T14:19:59.182Z,42.40
2019-02-09T14:25:06.680Z,42.40
2019-02-09T14:30:17.177Z,42.60
2019-02-09T14:35:23.847Z,42.60
2019-02-09T14:40:34.843Z,42.70
2019-02-09T14:45:43.446Z,42.80
2019-02-09T14:50:48.837Z,42.70
2019-02-09T14:55:54.427Z,42.80
2019-02-09T15:00:59.838Z,42.80
2019-02-09T15:06:06.076Z,42.80
2019-02-09T15:11:11.455Z,42.90
2019-02-09T15:16:21.690Z,43.00
2019-02-09T15:21:27.118Z,43.00
2019-02-09T15:26:37.084Z,43.00
2019-02-09T15:31:42.472Z,43.10
2019-02-09T15:36:47.872Z,43.10
2019-02-09T15:41:53.257Z,42.90
2019-02-09T15:46:58.660Z,43.20
2019-02-09T15:52:04.789Z,43.10
2019-02-09T15:57:10.183Z,43.10
2019-02-09T16:02:15.646Z,42.80
2019-02-09T16:07:21.291Z,43.10
2019-02-09T16:12:26.721Z,43.00
2019-02-09T16:17:32.220Z,42.90
2019-02-09T16:22:37.688Z,43.10
2019-02-09T16:27:43.146Z,43.10
2019-02-09T16:32:48.807Z,43.00
2019-02-09T16:37:54.741Z,43.10
2019-02-09T16:43:00.191Z,43.10
2019-02-09T16:48:12.342Z,43.20
2019-02-09T16:53:17.871Z,43.20
2019-02-09T16:58:23.386Z,43.10
2019-02-09T17:03:28.958Z,43.10
2019-02-09T17:08:34.350Z,43.20
2019-02-09T17:13:39.732Z,43.20
2019-02-09T17:18:45.168Z,43.30
2019-02-09T17:23:50.580Z,43.20
2019-02-09T17:28:55.969Z,43.70
2019-02-09T17:34:01.350Z,43.20
2019-02-09T17:39:08.965Z,43.20
2019-02-09T17:44:14.723Z,43.30
2019-02-09T17:49:20.139Z,43.30
2019-02-09T17:54:25.524Z,43.40
2019-02-09T17:59:30.909Z,43.20
2019-02-09T18:04:36.315Z,43.30
2019-02-09T18:09:42.145Z,43.30
2019-02-09T18:14:47.602Z,42.80
2019-02-09T18:19:53.000Z,43.30
2019-02-09T18:24:58.382Z,43.30
2019-02-09T18:30:06.159Z,43.20
2019-02-09T18:35:11.929Z,43.20
2019-02-09T18:40:21.095Z,43.20
2019-02-09T18:45:57.601Z,43.20
2019-02-09T18:50:58.273Z,43.20
2019-02-09T18:56:03.670Z,43.20
2019-02-09T19:01:09.268Z,43.30
2019-02-09T19:06:14.675Z,43.30
2019-02-09T19:11:20.051Z,43.20
2019-02-09T19:16:25.514Z,43.20
2019-02-09T19:21:30.919Z,43.10
2019-02-09T19:26:36.473Z,43.10
2019-02-09T19:31:41.937Z,43.10
2019-02-09T19:36:47.321Z,43.00
2019-02-09T19:41:52.741Z,43.00
2019-02-09T19:46:58.141Z,43.00
2019-02-09T19:52:03.544Z,43.10
2019-02-09T19:57:08.994Z,43.00
2019-02-09T20:02:14.395Z,43.00
2019-02-09T20:07:21.320Z,43.10
2019-02-09T20:12:26.742Z,43.00
2019-02-09T20:17:32.101Z,43.00
2019-02-09T20:22:37.492Z,43.10
2019-02-09T20:27:42.883Z,43.00
2019-02-09T20:32:48.613Z,43.00
2019-02-09T20:37:54.241Z,43.10
2019-02-09T20:43:01.946Z,43.10
2019-02-09T20:48:08.014Z,43.10
2019-02-09T20:53:13.638Z,43.10
2019-02-09T20:58:19.309Z,43.10
2019-02-09T21:03:24.725Z,43.10
2019-02-09T21:08:30.459Z,43.10
2019-02-09T21:13:35.917Z,43.20
2019-02-09T21:18:41.323Z,43.20
2019-02-09T21:23:46.783Z,43.20
2019-02-09T21:28:52.196Z,43.20
2019-02-09T21:33:57.647Z,43.30
2019-02-09T21:39:03.158Z,43.30
2019-02-09T21:44:10.121Z,43.30
2019-02-09T21:49:15.505Z,43.30
2019-02-09T21:54:20.898Z,43.30
2019-02-09T21:59:27.352Z,43.30
2019-02-09T22:04:32.750Z,43.30
2019-02-09T22:09:38.172Z,43.70
2019-02-09T22:14:43.677Z,43.30
2019-02-09T22:19:49.028Z,43.50
2019-02-09T22:24:54.806Z,43.40
2019-02-09T22:30:00.495Z,43.30
2019-02-09T22:35:08.605Z,43.40
2019-02-09T22:40:18.703Z,43.40
2019-02-09T22:45:25.650Z,43.40
2019-02-09T22:50:41.047Z,43.50
2019-02-09T22:56:05.774Z,43.40
2019-02-09T23:01:30.690Z,43.40
2019-02-09T23:06:52.574Z,43.40
2019-02-09T23:11:53.602Z,43.40
2019-02-09T23:16:58.997Z,43.50
2019-02-09T23:22:05.518Z,43.60
2019-02-09T23:27:10.975Z,43.60
2019-02-09T23:32:16.371Z,43.60
2019-02-09T23:37:21.813Z,43.70
2019-02-09T23:42:27.217Z,43.70
2019-02-09T23:47:32.601Z,43.60
2019-02-09T23:52:38.001Z,43.60
2019-02-09T23:57:43.389Z,43.60
